sensor_id;sensor_type;location;lat;lon;timestamp;pressure;altitude;pressure_sealevel;temperature;humidity
8061;BME280;4073;42.626;25.386;2023-07-31T00:01:18;96624.28;;;25.15;72.96
8061;BME280;4073;42.626;25.386;2023-07-31T00:03:43;96630.44;;;25.05;68.47
8061;BME280;4073;42.626;25.386;2023-07-31T00:06:08;96627.66;;;24.98;67.31
8061;BME280;4073;42.626;25.386;2023-07-31T00:08:34;96623.19;;;24.80;67.23
8061;BME280;4073;42.626;25.386;2023-07-31T00:10:59;96622.66;;;24.67;67.70
8061;BME280;4073;42.626;25.386;2023-07-31T00:13:25;96627.56;;;24.51;68.41
8061;BME280;4073;42.626;25.386;2023-07-31T00:15:50;96629.00;;;24.42;68.85
8061;BME280;4073;42.626;25.386;2023-07-31T00:18:16;96626.94;;;24.32;68.88
8061;BME280;4073;42.626;25.386;2023-07-31T00:20:41;96625.28;;;24.24;68.59
8061;BME280;4073;42.626;25.386;2023-07-31T00:23:06;96616.25;;;24.20;68.43
8061;BME280;4073;42.626;25.386;2023-07-31T00:25:32;96617.88;;;24.24;68.21
8061;BME280;4073;42.626;25.386;2023-07-31T00:27:57;96615.09;;;24.21;67.00
8061;BME280;4073;42.626;25.386;2023-07-31T00:30:23;96613.09;;;24.18;67.18
8061;BME280;4073;42.626;25.386;2023-07-31T00:32:50;96616.56;;;24.15;67.77
8061;BME280;4073;42.626;25.386;2023-07-31T00:35:16;96624.78;;;24.15;67.56
8061;BME280;4073;42.626;25.386;2023-07-31T00:37:41;96620.75;;;24.05;68.37
8061;BME280;4073;42.626;25.386;2023-07-31T00:40:07;96613.66;;;23.97;68.08
8061;BME280;4073;42.626;25.386;2023-07-31T00:42:33;96614.25;;;23.87;68.42
8061;BME280;4073;42.626;25.386;2023-07-31T00:44:58;96614.09;;;23.77;67.92
8061;BME280;4073;42.626;25.386;2023-07-31T00:47:24;96604.25;;;23.69;67.61
8061;BME280;4073;42.626;25.386;2023-07-31T00:49:49;96607.72;;;23.66;67.71
8061;BME280;4073;42.626;25.386;2023-07-31T00:52:15;96596.34;;;23.60;67.31
8061;BME280;4073;42.626;25.386;2023-07-31T00:54:41;96592.81;;;23.60;67.05
8061;BME280;4073;42.626;25.386;2023-07-31T00:57:06;96593.16;;;23.55;66.22
8061;BME280;4073;42.626;25.386;2023-07-31T00:59:33;96587.19;;;23.49;65.75
8061;BME280;4073;42.626;25.386;2023-07-31T01:01:59;96588.72;;;23.47;65.92
8061;BME280;4073;42.626;25.386;2023-07-31T01:04:25;96582.59;;;23.53;66.15
8061;BME280;4073;42.626;25.386;2023-07-31T01:12:03;96588.81;;;23.54;65.54
8061;BME280;4073;42.626;25.386;2023-07-31T01:14:29;96597.47;;;23.59;64.13
8061;BME280;4073;42.626;25.386;2023-07-31T01:16:55;96590.44;;;23.55;63.85
8061;BME280;4073;42.626;25.386;2023-07-31T01:19:25;96581.88;;;23.56;63.60
8061;BME280;4073;42.626;25.386;2023-07-31T01:24:55;96585.06;;;23.62;63.35
8061;BME280;4073;42.626;25.386;2023-07-31T01:27:30;96593.72;;;23.67;62.66
8061;BME280;4073;42.626;25.386;2023-07-31T01:30:05;96585.88;;;23.66;62.63
8061;BME280;4073;42.626;25.386;2023-07-31T01:32:36;96603.09;;;23.70;62.22
8061;BME280;4073;42.626;25.386;2023-07-31T01:35:05;96599.25;;;23.74;62.39
8061;BME280;4073;42.626;25.386;2023-07-31T01:37:31;96605.19;;;23.80;61.27
8061;BME280;4073;42.626;25.386;2023-07-31T01:39:56;96597.00;;;23.80;61.78
8061;BME280;4073;42.626;25.386;2023-07-31T01:42:22;96597.78;;;23.80;61.57
8061;BME280;4073;42.626;25.386;2023-07-31T01:44:47;96609.16;;;23.86;60.94
8061;BME280;4073;42.626;25.386;2023-07-31T01:47:12;96611.84;;;23.82;60.93
8061;BME280;4073;42.626;25.386;2023-07-31T01:49:38;96612.78;;;23.93;61.40
8061;BME280;4073;42.626;25.386;2023-07-31T01:52:04;96616.00;;;23.99;60.58
8061;BME280;4073;42.626;25.386;2023-07-31T01:54:29;96617.03;;;23.91;60.55
8061;BME280;4073;42.626;25.386;2023-07-31T01:56:55;96615.22;;;23.98;61.70
8061;BME280;4073;42.626;25.386;2023-07-31T01:59:20;96611.28;;;23.96;61.04
8061;BME280;4073;42.626;25.386;2023-07-31T02:01:46;96612.41;;;23.95;61.20
8061;BME280;4073;42.626;25.386;2023-07-31T02:04:11;96614.41;;;23.98;63.21
8061;BME280;4073;42.626;25.386;2023-07-31T02:06:37;96597.28;;;24.01;62.53
8061;BME280;4073;42.626;25.386;2023-07-31T02:09:03;96606.31;;;24.05;62.41
8061;BME280;4073;42.626;25.386;2023-07-31T02:11:28;96600.91;;;24.08;63.51
8061;BME280;4073;42.626;25.386;2023-07-31T02:13:54;96598.63;;;23.84;65.02
8061;BME280;4073;42.626;25.386;2023-07-31T02:16:19;96586.06;;;23.80;66.16
8061;BME280;4073;42.626;25.386;2023-07-31T02:18:45;96578.72;;;23.84;65.82
8061;BME280;4073;42.626;25.386;2023-07-31T02:21:10;96579.53;;;23.88;65.81
8061;BME280;4073;42.626;25.386;2023-07-31T02:23:36;96577.25;;;23.90;65.16
8061;BME280;4073;42.626;25.386;2023-07-31T02:26:01;96580.78;;;23.90;64.61
8061;BME280;4073;42.626;25.386;2023-07-31T02:28:26;96582.69;;;23.90;63.69
8061;BME280;4073;42.626;25.386;2023-07-31T02:30:52;96584.69;;;23.93;65.47
8061;BME280;4073;42.626;25.386;2023-07-31T02:33:17;96584.25;;;23.91;67.08
8061;BME280;4073;42.626;25.386;2023-07-31T02:35:43;96570.53;;;23.84;69.52
8061;BME280;4073;42.626;25.386;2023-07-31T02:38:08;96581.13;;;23.89;70.64
8061;BME280;4073;42.626;25.386;2023-07-31T02:40:34;96581.50;;;23.87;70.17
8061;BME280;4073;42.626;25.386;2023-07-31T02:42:59;96579.81;;;23.79;70.00
8061;BME280;4073;42.626;25.386;2023-07-31T02:45:25;96580.19;;;23.78;70.62
8061;BME280;4073;42.626;25.386;2023-07-31T02:47:50;96578.16;;;23.71;70.79
8061;BME280;4073;42.626;25.386;2023-07-31T02:50:15;96578.97;;;23.72;72.48
8061;BME280;4073;42.626;25.386;2023-07-31T02:52:41;96587.09;;;23.68;72.88
8061;BME280;4073;42.626;25.386;2023-07-31T02:55:07;96585.47;;;23.64;74.64
8061;BME280;4073;42.626;25.386;2023-07-31T02:57:32;96574.06;;;23.55;75.14
8061;BME280;4073;42.626;25.386;2023-07-31T02:59:58;96581.38;;;23.51;75.88
8061;BME280;4073;42.626;25.386;2023-07-31T03:02:23;96588.31;;;23.45;77.02
8061;BME280;4073;42.626;25.386;2023-07-31T03:04:48;96571.78;;;23.34;77.69
8061;BME280;4073;42.626;25.386;2023-07-31T03:07:14;96589.72;;;23.35;76.72
8061;BME280;4073;42.626;25.386;2023-07-31T03:09:39;96586.22;;;23.35;75.34
8061;BME280;4073;42.626;25.386;2023-07-31T03:12:05;96592.44;;;23.35;78.13
8061;BME280;4073;42.626;25.386;2023-07-31T03:14:31;96591.72;;;23.38;78.15
8061;BME280;4073;42.626;25.386;2023-07-31T03:16:56;96591.78;;;23.42;77.51
8061;BME280;4073;42.626;25.386;2023-07-31T03:19:22;96599.13;;;23.38;77.65
8061;BME280;4073;42.626;25.386;2023-07-31T03:21:47;96603.47;;;23.42;77.87
8061;BME280;4073;42.626;25.386;2023-07-31T03:24:13;96608.88;;;23.39;78.88
8061;BME280;4073;42.626;25.386;2023-07-31T03:26:38;96618.22;;;23.38;79.01
8061;BME280;4073;42.626;25.386;2023-07-31T03:29:06;96624.72;;;23.30;80.26
8061;BME280;4073;42.626;25.386;2023-07-31T03:31:32;96620.78;;;23.27;80.76
8061;BME280;4073;42.626;25.386;2023-07-31T03:33:57;96614.75;;;23.18;81.61
8061;BME280;4073;42.626;25.386;2023-07-31T03:36:23;96626.47;;;23.19;82.79
8061;BME280;4073;42.626;25.386;2023-07-31T03:38:48;96632.59;;;23.12;83.20
8061;BME280;4073;42.626;25.386;2023-07-31T03:41:13;96632.88;;;23.07;83.43
8061;BME280;4073;42.626;25.386;2023-07-31T03:43:39;96639.50;;;23.06;84.00
8061;BME280;4073;42.626;25.386;2023-07-31T03:46:05;96640.03;;;22.93;87.03
8061;BME280;4073;42.626;25.386;2023-07-31T03:48:30;96653.28;;;22.94;89.77
8061;BME280;4073;42.626;25.386;2023-07-31T03:50:55;96655.78;;;23.03;92.13
8061;BME280;4073;42.626;25.386;2023-07-31T03:53:21;96650.28;;;22.99;94.10
8061;BME280;4073;42.626;25.386;2023-07-31T03:55:46;96653.41;;;23.01;94.14
8061;BME280;4073;42.626;25.386;2023-07-31T03:58:12;96649.56;;;23.02;90.88
8061;BME280;4073;42.626;25.386;2023-07-31T04:00:40;96639.03;;;23.01;90.52
8061;BME280;4073;42.626;25.386;2023-07-31T04:03:05;96649.72;;;23.13;88.74
8061;BME280;4073;42.626;25.386;2023-07-31T04:05:32;96653.25;;;23.13;88.02
8061;BME280;4073;42.626;25.386;2023-07-31T04:07:57;96652.28;;;23.02;93.76
8061;BME280;4073;42.626;25.386;2023-07-31T04:10:23;96639.50;;;22.84;100.00
8061;BME280;4073;42.626;25.386;2023-07-31T04:12:48;96653.03;;;22.57;100.00
8061;BME280;4073;42.626;25.386;2023-07-31T04:15:14;96661.03;;;22.31;100.00
8061;BME280;4073;42.626;25.386;2023-07-31T04:17:39;96647.69;;;22.07;100.00
8061;BME280;4073;42.626;25.386;2023-07-31T04:20:05;96655.88;;;21.88;100.00
8061;BME280;4073;42.626;25.386;2023-07-31T04:22:31;96656.69;;;21.73;100.00
8061;BME280;4073;42.626;25.386;2023-07-31T04:24:57;96650.19;;;21.62;100.00
8061;BME280;4073;42.626;25.386;2023-07-31T04:27:22;96655.13;;;21.57;100.00
8061;BME280;4073;42.626;25.386;2023-07-31T04:29:47;96653.19;;;21.42;100.00
8061;BME280;4073;42.626;25.386;2023-07-31T04:32:13;96659.38;;;21.39;100.00
8061;BME280;4073;42.626;25.386;2023-07-31T04:34:42;96651.66;;;21.25;100.00
8061;BME280;4073;42.626;25.386;2023-07-31T04:37:07;96659.28;;;21.20;100.00
8061;BME280;4073;42.626;25.386;2023-07-31T04:39:33;96669.97;;;21.13;100.00
8061;BME280;4073;42.626;25.386;2023-07-31T04:41:58;96680.16;;;21.16;100.00
8061;BME280;4073;42.626;25.386;2023-07-31T04:44:24;96672.00;;;21.16;100.00
8061;BME280;4073;42.626;25.386;2023-07-31T04:46:49;96672.00;;;21.16;100.00
8061;BME280;4073;42.626;25.386;2023-07-31T04:49:14;96674.09;;;21.22;100.00
8061;BME280;4073;42.626;25.386;2023-07-31T04:51:40;96678.47;;;21.27;100.00
8061;BME280;4073;42.626;25.386;2023-07-31T04:54:05;96674.25;;;21.29;100.00
8061;BME280;4073;42.626;25.386;2023-07-31T04:56:31;96680.91;;;21.32;100.00
8061;BME280;4073;42.626;25.386;2023-07-31T04:58:56;96681.19;;;21.27;100.00
8061;BME280;4073;42.626;25.386;2023-07-31T05:01:22;96673.75;;;21.24;100.00
8061;BME280;4073;42.626;25.386;2023-07-31T05:03:47;96687.00;;;21.25;100.00
8061;BME280;4073;42.626;25.386;2023-07-31T05:06:13;96696.88;;;21.18;100.00
8061;BME280;4073;42.626;25.386;2023-07-31T05:08:40;96674.63;;;20.97;100.00
8061;BME280;4073;42.626;25.386;2023-07-31T05:11:06;96682.69;;;20.93;100.00
8061;BME280;4073;42.626;25.386;2023-07-31T05:13:31;96689.22;;;20.92;100.00
8061;BME280;4073;42.626;25.386;2023-07-31T05:15:56;96693.41;;;20.90;100.00
8061;BME280;4073;42.626;25.386;2023-07-31T05:18:22;96682.03;;;20.84;100.00
8061;BME280;4073;42.626;25.386;2023-07-31T05:20:47;96697.97;;;20.86;100.00
8061;BME280;4073;42.626;25.386;2023-07-31T05:23:13;96691.22;;;20.80;100.00
8061;BME280;4073;42.626;25.386;2023-07-31T05:25:38;96699.75;;;20.94;100.00
8061;BME280;4073;42.626;25.386;2023-07-31T05:28:04;96704.44;;;21.09;100.00
8061;BME280;4073;42.626;25.386;2023-07-31T05:30:30;96706.72;;;21.22;100.00
8061;BME280;4073;42.626;25.386;2023-07-31T05:32:56;96707.25;;;21.28;100.00
8061;BME280;4073;42.626;25.386;2023-07-31T05:35:21;96699.25;;;21.19;100.00
8061;BME280;4073;42.626;25.386;2023-07-31T05:37:47;96715.03;;;21.29;100.00
8061;BME280;4073;42.626;25.386;2023-07-31T05:40:12;96705.66;;;21.27;100.00
8061;BME280;4073;42.626;25.386;2023-07-31T05:42:37;96717.59;;;21.22;100.00
8061;BME280;4073;42.626;25.386;2023-07-31T05:45:05;96717.94;;;21.21;100.00
8061;BME280;4073;42.626;25.386;2023-07-31T05:47:31;96720.66;;;21.21;100.00
8061;BME280;4073;42.626;25.386;2023-07-31T05:49:56;96720.31;;;21.22;100.00
8061;BME280;4073;42.626;25.386;2023-07-31T05:52:21;96727.59;;;21.18;100.00
8061;BME280;4073;42.626;25.386;2023-07-31T05:54:47;96720.59;;;21.17;100.00
8061;BME280;4073;42.626;25.386;2023-07-31T05:57:12;96724.88;;;21.18;100.00
8061;BME280;4073;42.626;25.386;2023-07-31T05:59:38;96728.03;;;21.20;100.00
8061;BME280;4073;42.626;25.386;2023-07-31T06:02:03;96721.28;;;21.30;100.00
8061;BME280;4073;42.626;25.386;2023-07-31T06:04:29;96724.06;;;21.33;100.00
8061;BME280;4073;42.626;25.386;2023-07-31T06:06:54;96725.66;;;21.50;100.00
8061;BME280;4073;42.626;25.386;2023-07-31T06:09:20;96735.38;;;21.66;100.00
8061;BME280;4073;42.626;25.386;2023-07-31T06:11:46;96725.56;;;21.77;100.00
8061;BME280;4073;42.626;25.386;2023-07-31T06:14:11;96734.06;;;21.76;100.00
8061;BME280;4073;42.626;25.386;2023-07-31T06:16:37;96739.44;;;21.72;100.00
8061;BME280;4073;42.626;25.386;2023-07-31T06:19:02;96741.03;;;21.73;100.00
8061;BME280;4073;42.626;25.386;2023-07-31T06:21:28;96752.56;;;21.70;100.00
8061;BME280;4073;42.626;25.386;2023-07-31T06:23:55;96756.44;;;21.69;100.00
8061;BME280;4073;42.626;25.386;2023-07-31T06:26:20;96757.25;;;21.70;100.00
8061;BME280;4073;42.626;25.386;2023-07-31T06:28:46;96757.94;;;21.67;100.00
8061;BME280;4073;42.626;25.386;2023-07-31T06:31:11;96754.63;;;21.73;100.00
8061;BME280;4073;42.626;25.386;2023-07-31T06:33:37;96756.00;;;21.67;100.00
8061;BME280;4073;42.626;25.386;2023-07-31T06:36:02;96754.00;;;21.64;100.00
8061;BME280;4073;42.626;25.386;2023-07-31T06:38:28;96761.63;;;21.59;100.00
8061;BME280;4073;42.626;25.386;2023-07-31T06:40:54;96751.81;;;21.54;100.00
8061;BME280;4073;42.626;25.386;2023-07-31T06:43:19;96762.75;;;21.58;100.00
8061;BME280;4073;42.626;25.386;2023-07-31T06:45:45;96759.06;;;21.66;100.00
8061;BME280;4073;42.626;25.386;2023-07-31T06:48:11;96749.44;;;21.68;100.00
8061;BME280;4073;42.626;25.386;2023-07-31T06:50:37;96762.19;;;21.80;100.00
8061;BME280;4073;42.626;25.386;2023-07-31T06:53:02;96758.16;;;21.74;100.00
8061;BME280;4073;42.626;25.386;2023-07-31T06:55:28;96741.19;;;21.65;100.00
8061;BME280;4073;42.626;25.386;2023-07-31T06:57:55;96759.28;;;21.73;100.00
8061;BME280;4073;42.626;25.386;2023-07-31T07:00:22;96759.00;;;21.78;100.00
8061;BME280;4073;42.626;25.386;2023-07-31T07:02:48;96761.91;;;21.85;100.00
8061;BME280;4073;42.626;25.386;2023-07-31T07:05:15;96754.19;;;21.87;100.00
8061;BME280;4073;42.626;25.386;2023-07-31T07:07:41;96755.41;;;21.89;100.00
8061;BME280;4073;42.626;25.386;2023-07-31T07:10:07;96753.63;;;21.97;100.00
8061;BME280;4073;42.626;25.386;2023-07-31T07:12:33;96745.63;;;22.04;100.00
8061;BME280;4073;42.626;25.386;2023-07-31T07:14:59;96742.72;;;22.12;100.00
8061;BME280;4073;42.626;25.386;2023-07-31T07:17:25;96749.09;;;22.20;100.00
8061;BME280;4073;42.626;25.386;2023-07-31T07:19:51;96752.41;;;22.29;100.00
8061;BME280;4073;42.626;25.386;2023-07-31T07:22:17;96749.91;;;22.39;100.00
8061;BME280;4073;42.626;25.386;2023-07-31T07:24:43;96750.28;;;22.57;100.00
8061;BME280;4073;42.626;25.386;2023-07-31T07:27:08;96742.75;;;22.69;100.00
8061;BME280;4073;42.626;25.386;2023-07-31T07:29:34;96740.47;;;22.91;100.00
8061;BME280;4073;42.626;25.386;2023-07-31T07:32:00;96746.34;;;22.93;100.00
8061;BME280;4073;42.626;25.386;2023-07-31T07:34:27;96747.03;;;23.09;100.00
8061;BME280;4073;42.626;25.386;2023-07-31T07:36:52;96742.38;;;23.09;100.00
8061;BME280;4073;42.626;25.386;2023-07-31T07:39:18;96743.59;;;23.12;100.00
8061;BME280;4073;42.626;25.386;2023-07-31T07:41:44;96751.19;;;23.22;100.00
8061;BME280;4073;42.626;25.386;2023-07-31T07:44:09;96762.66;;;23.31;100.00
8061;BME280;4073;42.626;25.386;2023-07-31T07:46:35;96749.31;;;23.48;100.00
8061;BME280;4073;42.626;25.386;2023-07-31T07:49:00;96756.94;;;23.84;100.00
8061;BME280;4073;42.626;25.386;2023-07-31T07:51:26;96761.44;;;23.96;100.00
8061;BME280;4073;42.626;25.386;2023-07-31T07:53:51;96764.84;;;24.15;100.00
8061;BME280;4073;42.626;25.386;2023-07-31T07:56:17;96764.78;;;24.38;100.00
8061;BME280;4073;42.626;25.386;2023-07-31T07:58:42;96757.84;;;24.44;100.00
8061;BME280;4073;42.626;25.386;2023-07-31T08:01:07;96757.19;;;24.54;100.00
8061;BME280;4073;42.626;25.386;2023-07-31T08:03:33;96762.16;;;24.74;100.00
8061;BME280;4073;42.626;25.386;2023-07-31T08:05:59;96766.44;;;25.08;100.00
8061;BME280;4073;42.626;25.386;2023-07-31T08:08:25;96769.59;;;25.10;100.00
8061;BME280;4073;42.626;25.386;2023-07-31T08:10:50;96767.84;;;25.29;100.00
8061;BME280;4073;42.626;25.386;2023-07-31T08:13:16;96763.22;;;25.33;100.00
8061;BME280;4073;42.626;25.386;2023-07-31T08:15:42;96763.69;;;25.38;100.00
8061;BME280;4073;42.626;25.386;2023-07-31T08:18:09;96770.75;;;25.86;100.00
8061;BME280;4073;42.626;25.386;2023-07-31T08:20:34;96763.75;;;26.53;100.00
8061;BME280;4073;42.626;25.386;2023-07-31T08:22:59;96766.44;;;27.21;100.00
8061;BME280;4073;42.626;25.386;2023-07-31T08:25:25;96769.25;;;27.78;100.00
8061;BME280;4073;42.626;25.386;2023-07-31T08:27:50;96770.47;;;28.15;100.00
8061;BME280;4073;42.626;25.386;2023-07-31T08:30:18;96769.19;;;28.69;96.95
8061;BME280;4073;42.626;25.386;2023-07-31T08:32:44;96770.09;;;29.31;93.11
8061;BME280;4073;42.626;25.386;2023-07-31T08:35:10;96770.28;;;29.68;92.31
8061;BME280;4073;42.626;25.386;2023-07-31T08:37:35;96769.41;;;29.78;84.25
8061;BME280;4073;42.626;25.386;2023-07-31T08:40:01;96771.69;;;29.90;85.45
8061;BME280;4073;42.626;25.386;2023-07-31T08:42:26;96768.66;;;29.74;83.67
8061;BME280;4073;42.626;25.386;2023-07-31T08:44:52;96760.50;;;29.56;87.82
8061;BME280;4073;42.626;25.386;2023-07-31T08:47:19;96765.44;;;29.24;91.52
8061;BME280;4073;42.626;25.386;2023-07-31T08:49:46;96762.00;;;29.03;91.73
8061;BME280;4073;42.626;25.386;2023-07-31T08:52:12;96761.97;;;29.10;90.84
8061;BME280;4073;42.626;25.386;2023-07-31T08:54:38;96759.63;;;28.98;92.28
8061;BME280;4073;42.626;25.386;2023-07-31T08:57:05;96771.84;;;28.90;91.68
8061;BME280;4073;42.626;25.386;2023-07-31T08:59:34;96759.41;;;28.50;96.63
8061;BME280;4073;42.626;25.386;2023-07-31T09:02:05;96771.22;;;28.47;96.16
8061;BME280;4073;42.626;25.386;2023-07-31T09:04:31;96764.50;;;28.41;97.84
8061;BME280;4073;42.626;25.386;2023-07-31T09:07:00;96770.44;;;28.19;96.76
8061;BME280;4073;42.626;25.386;2023-07-31T09:09:26;96767.72;;;27.87;97.04
8061;BME280;4073;42.626;25.386;2023-07-31T09:11:51;96767.72;;;27.91;99.13
8061;BME280;4073;42.626;25.386;2023-07-31T09:14:18;96766.91;;;27.73;100.00
8061;BME280;4073;42.626;25.386;2023-07-31T09:16:58;96761.41;;;27.69;100.00
8061;BME280;4073;42.626;25.386;2023-07-31T09:19:35;96767.34;;;27.85;100.00
8061;BME280;4073;42.626;25.386;2023-07-31T09:22:06;96763.78;;;28.06;97.96
8061;BME280;4073;42.626;25.386;2023-07-31T09:24:33;96767.72;;;28.22;96.41
8061;BME280;4073;42.626;25.386;2023-07-31T09:27:00;96773.16;;;28.43;95.05
8061;BME280;4073;42.626;25.386;2023-07-31T09:29:27;96764.06;;;28.64;93.68
8061;BME280;4073;42.626;25.386;2023-07-31T09:31:54;96757.03;;;28.66;96.06
8061;BME280;4073;42.626;25.386;2023-07-31T09:34:21;96750.22;;;28.88;95.21
8061;BME280;4073;42.626;25.386;2023-07-31T09:36:53;96753.31;;;29.11;92.70
8061;BME280;4073;42.626;25.386;2023-07-31T09:39:19;96744.63;;;29.16;90.39
8061;BME280;4073;42.626;25.386;2023-07-31T09:41:54;96752.16;;;29.02;92.92
8061;BME280;4073;42.626;25.386;2023-07-31T09:44:20;96753.75;;;28.92;91.04
8061;BME280;4073;42.626;25.386;2023-07-31T09:46:46;96745.09;;;28.94;92.61
8061;BME280;4073;42.626;25.386;2023-07-31T09:49:13;96747.16;;;28.76;90.74
8061;BME280;4073;42.626;25.386;2023-07-31T09:51:41;96744.44;;;28.69;92.38
8061;BME280;4073;42.626;25.386;2023-07-31T09:54:16;96747.16;;;28.76;91.05
8061;BME280;4073;42.626;25.386;2023-07-31T09:56:48;96741.09;;;29.16;90.86
8061;BME280;4073;42.626;25.386;2023-07-31T09:59:16;96749.53;;;29.49;85.63
8061;BME280;4073;42.626;25.386;2023-07-31T10:01:43;96744.78;;;29.53;83.17
8061;BME280;4073;42.626;25.386;2023-07-31T10:04:10;96747.69;;;29.87;78.24
8061;BME280;4073;42.626;25.386;2023-07-31T10:06:37;96746.94;;;30.27;77.89
8061;BME280;4073;42.626;25.386;2023-07-31T10:09:08;96742.13;;;30.38;74.73
8061;BME280;4073;42.626;25.386;2023-07-31T10:11:50;96738.81;;;30.50;73.25
8061;BME280;4073;42.626;25.386;2023-07-31T10:14:20;96737.69;;;30.81;72.32
8061;BME280;4073;42.626;25.386;2023-07-31T10:16:46;96739.41;;;31.32;68.92
8061;BME280;4073;42.626;25.386;2023-07-31T10:19:12;96738.34;;;31.75;64.70
8061;BME280;4073;42.626;25.386;2023-07-31T10:21:37;96732.25;;;32.11;63.89
8061;BME280;4073;42.626;25.386;2023-07-31T10:24:04;96727.25;;;32.25;63.43
8061;BME280;4073;42.626;25.386;2023-07-31T10:26:31;96715.34;;;32.05;61.87
8061;BME280;4073;42.626;25.386;2023-07-31T10:28:58;96712.28;;;31.99;62.23
8061;BME280;4073;42.626;25.386;2023-07-31T10:31:25;96715.06;;;31.23;65.20
8061;BME280;4073;42.626;25.386;2023-07-31T10:33:52;96712.72;;;31.22;66.30
8061;BME280;4073;42.626;25.386;2023-07-31T10:36:19;96711.09;;;31.51;66.50
8061;BME280;4073;42.626;25.386;2023-07-31T10:38:48;96709.47;;;31.80;65.81
8061;BME280;4073;42.626;25.386;2023-07-31T10:41:14;96714.31;;;31.99;58.90
8061;BME280;4073;42.626;25.386;2023-07-31T10:43:40;96710.19;;;32.07;56.49
8061;BME280;4073;42.626;25.386;2023-07-31T10:46:11;96708.31;;;32.00;59.76
8061;BME280;4073;42.626;25.386;2023-07-31T10:48:38;96686.63;;;31.76;57.96
8061;BME280;4073;42.626;25.386;2023-07-31T10:51:11;96699.28;;;31.50;59.12
8061;BME280;4073;42.626;25.386;2023-07-31T10:53:38;96692.28;;;31.42;58.50
8061;BME280;4073;42.626;25.386;2023-07-31T10:56:06;96685.00;;;31.29;60.47
8061;BME280;4073;42.626;25.386;2023-07-31T10:58:32;96695.28;;;30.98;60.15
8061;BME280;4073;42.626;25.386;2023-07-31T11:01:00;96685.50;;;30.60;65.50
8061;BME280;4073;42.626;25.386;2023-07-31T11:03:27;96683.66;;;30.50;65.82
8061;BME280;4073;42.626;25.386;2023-07-31T11:06:05;96680.69;;;30.68;61.30
8061;BME280;4073;42.626;25.386;2023-07-31T11:08:33;96679.75;;;30.48;60.01
8061;BME280;4073;42.626;25.386;2023-07-31T11:15:54;96671.78;;;29.79;63.68
8061;BME280;4073;42.626;25.386;2023-07-31T11:18:19;96666.56;;;29.40;65.83
8061;BME280;4073;42.626;25.386;2023-07-31T11:20:45;96665.97;;;29.19;65.84
8061;BME280;4073;42.626;25.386;2023-07-31T11:23:10;96674.13;;;29.29;66.73
8061;BME280;4073;42.626;25.386;2023-07-31T11:25:38;96667.81;;;29.32;67.47
8061;BME280;4073;42.626;25.386;2023-07-31T11:28:05;96662.38;;;29.22;66.62
8061;BME280;4073;42.626;25.386;2023-07-31T11:30:31;96666.31;;;29.24;68.04
8061;BME280;4073;42.626;25.386;2023-07-31T11:32:56;96668.47;;;29.50;68.63
8061;BME280;4073;42.626;25.386;2023-07-31T11:35:21;96665.97;;;29.15;70.52
8061;BME280;4073;42.626;25.386;2023-07-31T11:37:48;96671.53;;;29.08;70.65
8061;BME280;4073;42.626;25.386;2023-07-31T11:40:14;96658.94;;;29.11;70.59
8061;BME280;4073;42.626;25.386;2023-07-31T11:42:40;96661.75;;;28.97;72.72
8061;BME280;4073;42.626;25.386;2023-07-31T11:45:07;96655.19;;;28.80;74.43
8061;BME280;4073;42.626;25.386;2023-07-31T11:47:33;96656.41;;;28.69;75.14
8061;BME280;4073;42.626;25.386;2023-07-31T11:50:00;96654.94;;;28.43;74.93
8061;BME280;4073;42.626;25.386;2023-07-31T11:52:29;96653.41;;;28.28;75.78
8061;BME280;4073;42.626;25.386;2023-07-31T11:54:56;96644.38;;;28.28;77.47
8061;BME280;4073;42.626;25.386;2023-07-31T11:57:21;96647.13;;;28.24;74.60
8061;BME280;4073;42.626;25.386;2023-07-31T11:59:48;96645.97;;;28.25;75.30
8061;BME280;4073;42.626;25.386;2023-07-31T12:02:14;96643.84;;;28.68;75.08
8061;BME280;4073;42.626;25.386;2023-07-31T12:04:40;96631.47;;;28.97;71.40
8061;BME280;4073;42.626;25.386;2023-07-31T12:07:05;96641.75;;;29.47;66.97
8061;BME280;4073;42.626;25.386;2023-07-31T12:09:31;96643.34;;;29.89;65.08
8061;BME280;4073;42.626;25.386;2023-07-31T12:11:56;96639.19;;;30.11;60.04
8061;BME280;4073;42.626;25.386;2023-07-31T12:14:24;96631.34;;;30.06;61.74
8061;BME280;4073;42.626;25.386;2023-07-31T12:17:08;96626.66;;;30.03;61.74
8061;BME280;4073;42.626;25.386;2023-07-31T12:19:33;96627.28;;;29.84;65.00
8061;BME280;4073;42.626;25.386;2023-07-31T12:22:00;96633.84;;;29.53;61.33
8061;BME280;4073;42.626;25.386;2023-07-31T12:24:26;96635.69;;;29.19;64.01
8061;BME280;4073;42.626;25.386;2023-07-31T12:26:52;96626.63;;;29.18;64.54
8061;BME280;4073;42.626;25.386;2023-07-31T12:29:18;96616.44;;;29.59;62.93
8061;BME280;4073;42.626;25.386;2023-07-31T12:31:43;96623.56;;;29.98;60.46
8061;BME280;4073;42.626;25.386;2023-07-31T12:34:19;96611.41;;;30.29;57.75
8061;BME280;4073;42.626;25.386;2023-07-31T12:36:46;96601.03;;;30.70;56.90
8061;BME280;4073;42.626;25.386;2023-07-31T12:39:14;96591.44;;;30.81;55.30
8061;BME280;4073;42.626;25.386;2023-07-31T12:41:40;96600.81;;;30.87;55.03
8061;BME280;4073;42.626;25.386;2023-07-31T12:44:05;96602.16;;;31.02;55.20
8061;BME280;4073;42.626;25.386;2023-07-31T12:46:31;96601.13;;;31.19;56.86
8061;BME280;4073;42.626;25.386;2023-07-31T12:48:56;96595.38;;;31.33;56.28
8061;BME280;4073;42.626;25.386;2023-07-31T12:51:22;96604.94;;;31.29;54.52
8061;BME280;4073;42.626;25.386;2023-07-31T12:53:47;96597.41;;;31.03;55.56
8061;BME280;4073;42.626;25.386;2023-07-31T12:56:13;96616.47;;;31.20;54.67
8061;BME280;4073;42.626;25.386;2023-07-31T12:58:38;96605.81;;;31.45;54.34
8061;BME280;4073;42.626;25.386;2023-07-31T13:01:04;96602.03;;;31.59;54.52
8061;BME280;4073;42.626;25.386;2023-07-31T13:03:31;96597.16;;;31.66;52.11
8061;BME280;4073;42.626;25.386;2023-07-31T13:05:56;96614.53;;;31.44;52.60
8061;BME280;4073;42.626;25.386;2023-07-31T13:08:22;96597.88;;;31.24;52.79
8061;BME280;4073;42.626;25.386;2023-07-31T13:10:47;96602.69;;;30.94;50.96
8061;BME280;4073;42.626;25.386;2023-07-31T13:13:12;96606.41;;;30.84;51.82
8061;BME280;4073;42.626;25.386;2023-07-31T13:15:38;96591.97;;;30.69;51.80